createdAt,value
2022-12-18T00:02:58.479Z,101755.94
2022-12-18T00:06:01.172Z,101762.63
2022-12-18T00:09:04.556Z,101769.69
2022-12-18T00:15:18.288Z,101776.50
2022-12-18T00:18:20.891Z,101798.28
2022-12-18T00:21:23.596Z,101796.78
2022-12-18T00:24:26.154Z,101796.31
2022-12-18T00:27:28.566Z,101820.63
2022-12-18T00:30:31.516Z,101807.03
2022-12-18T00:33:34.451Z,101828.63
2022-12-18T00:36:37.243Z,101822.56
2022-12-18T00:39:39.614Z,101812.94
2022-12-18T00:42:57.297Z,101832.16
2022-12-18T00:45:59.872Z,101808.81
2022-12-18T00:49:02.581Z,101822.59
2022-12-18T00:52:05.522Z,101832.16
2022-12-18T00:55:08.488Z,101841.66
2022-12-18T00:58:11.940Z,101845.88
2022-12-18T01:01:15.016Z,101851.78
2022-12-18T01:04:17.875Z,101843.31
2022-12-18T01:07:21.590Z,101846.59
2022-12-18T01:10:25.140Z,101857.25
2022-12-18T01:13:28.256Z,101856.28
2022-12-18T01:16:30.715Z,101857.13
2022-12-18T01:19:33.688Z,101862.13
2022-12-18T01:22:37.290Z,101870.84
2022-12-18T01:25:39.864Z,101879.69
2022-12-18T01:28:45.845Z,101864.75
2022-12-18T01:31:48.461Z,101864.09
2022-12-18T01:34:51.201Z,101883.41
2022-12-18T01:37:57.028Z,101878.13
2022-12-18T01:41:00.342Z,101867.19
2022-12-18T01:44:42.008Z,101890.84
2022-12-18T01:47:46.496Z,101888.47
2022-12-18T01:50:51.157Z,101888.47
2022-12-18T01:53:53.657Z,101892.88
2022-12-18T01:56:56.135Z,101883.00
2022-12-18T02:00:02.636Z,101901.91
2022-12-18T02:03:15.606Z,101910.72
2022-12-18T02:06:20.951Z,101907.31
2022-12-18T02:09:33.533Z,101907.31
2022-12-18T02:13:08.469Z,101920.75
2022-12-18T02:16:37.414Z,101933.75
2022-12-18T02:19:58.421Z,101936.06
2022-12-18T02:23:22.776Z,101930.06
2022-12-18T02:26:35.717Z,101942.41
2022-12-18T02:29:43.442Z,101926.56
2022-12-18T02:32:53.207Z,101940.63
2022-12-18T02:35:58.519Z,101957.13
2022-12-18T02:39:03.267Z,101959.75
2022-12-18T02:42:09.028Z,101959.91
2022-12-18T02:45:12.183Z,101948.63
2022-12-18T02:48:15.118Z,101945.25
2022-12-18T02:51:43.643Z,101962.09
2022-12-18T02:55:16.994Z,101969.56
2022-12-18T02:58:29.652Z,101974.00
2022-12-18T03:01:49.267Z,101976.03
2022-12-18T03:05:05.452Z,101974.91
2022-12-18T03:08:18.394Z,101982.84
2022-12-18T03:11:42.166Z,101987.34
2022-12-18T03:14:48.355Z,101978.53
2022-12-18T03:18:16.514Z,101992.56
2022-12-18T03:21:24.042Z,101998.06
2022-12-18T03:24:30.840Z,102002.38
2022-12-18T03:27:36.998Z,102011.72
2022-12-18T03:30:46.745Z,102000.75
2022-12-18T03:33:56.628Z,102020.06
2022-12-18T03:37:07.358Z,102006.38
2022-12-18T03:40:10.527Z,102020.56
2022-12-18T03:43:33.789Z,102024.16
2022-12-18T03:46:53.359Z,102014.19
2022-12-18T03:50:44.017Z,102018.59
2022-12-18T03:53:59.161Z,102029.84
2022-12-18T03:57:12.771Z,102029.06
2022-12-18T04:00:18.614Z,102021.59
2022-12-18T04:03:43.934Z,102043.16
2022-12-18T04:06:49.510Z,102047.19
2022-12-18T04:09:57.578Z,102041.63
2022-12-18T04:13:00.582Z,102040.91
2022-12-18T04:16:04.249Z,102036.56
2022-12-18T04:19:06.907Z,102051.06
2022-12-18T04:22:15.097Z,102052.69
2022-12-18T04:25:21.788Z,102036.28
2022-12-18T04:28:39.936Z,102041.72
2022-12-18T04:31:42.969Z,102050.13
2022-12-18T04:34:45.794Z,102062.91
2022-12-18T04:37:48.319Z,102051.50
2022-12-18T04:40:51.695Z,102074.72
2022-12-18T04:44:00.859Z,102075.94
2022-12-18T04:47:03.997Z,102085.25
2022-12-18T04:50:07.131Z,102091.38
2022-12-18T04:53:09.595Z,102081.47
2022-12-18T04:56:15.171Z,102082.38
2022-12-18T04:59:18.066Z,102099.03
2022-12-18T05:02:20.608Z,102104.06
2022-12-18T05:05:23.135Z,102102.53
2022-12-18T05:08:25.798Z,102114.53
2022-12-18T05:11:28.300Z,102111.41
2022-12-18T05:14:30.685Z,102118.19
2022-12-18T05:17:33.113Z,102125.09
2022-12-18T05:20:35.638Z,102108.38
2022-12-18T05:23:38.855Z,102096.31
2022-12-18T05:26:41.810Z,102130.53
2022-12-18T05:29:44.237Z,102110.72
2022-12-18T05:32:46.920Z,102133.00
2022-12-18T05:35:57.104Z,102120.88
2022-12-18T05:39:01.405Z,102128.31
2022-12-18T05:42:03.997Z,102135.84
2022-12-18T05:45:07.287Z,102124.03
2022-12-18T05:48:14.726Z,102148.22
2022-12-18T05:51:19.776Z,102121.38
2022-12-18T05:54:22.864Z,102139.00
2022-12-18T05:57:25.260Z,102141.97
2022-12-18T06:00:27.929Z,102152.88
2022-12-18T06:03:33.894Z,102177.91
2022-12-18T06:06:36.665Z,102147.34
2022-12-18T06:09:39.795Z,102140.66
2022-12-18T06:12:42.296Z,102161.50
2022-12-18T06:15:44.719Z,102156.72
2022-12-18T06:18:47.312Z,102184.09
2022-12-18T06:21:51.775Z,102160.09
2022-12-18T06:24:54.241Z,102179.91
2022-12-18T06:27:56.909Z,102189.03
2022-12-18T06:30:59.368Z,102195.75
2022-12-18T06:34:05.780Z,102184.16
2022-12-18T06:37:08.190Z,102206.53
2022-12-18T06:40:11.200Z,102214.88
2022-12-18T06:43:13.654Z,102214.63
2022-12-18T06:46:16.341Z,102189.81
2022-12-18T06:49:18.994Z,102221.16
2022-12-18T06:52:21.627Z,102213.09
2022-12-18T06:55:24.220Z,102209.84
2022-12-18T06:58:26.696Z,102237.81
2022-12-18T07:01:29.409Z,102239.44
2022-12-18T07:04:32.849Z,102210.69
2022-12-18T07:07:36.095Z,102238.66
2022-12-18T07:10:47.451Z,102246.66
2022-12-18T07:13:51.409Z,102246.00
2022-12-18T07:16:53.886Z,102242.88
2022-12-18T07:19:56.542Z,102266.69
2022-12-18T07:22:58.948Z,102237.50
2022-12-18T07:26:12.672Z,102271.03
2022-12-18T07:29:15.192Z,102275.06
2022-12-18T07:32:17.908Z,102274.09
2022-12-18T07:35:25.142Z,102287.38
2022-12-18T07:38:28.075Z,102295.41
2022-12-18T07:41:31.122Z,102281.88
2022-12-18T07:44:40.694Z,102300.09
2022-12-18T07:47:43.242Z,102312.28
2022-12-18T07:50:45.809Z,102313.81
2022-12-18T07:53:51.799Z,102318.78
2022-12-18T07:56:55.621Z,102309.28
2022-12-18T07:59:58.199Z,102337.44
2022-12-18T08:03:01.176Z,102288.31
2022-12-18T08:06:06.312Z,102347.66
2022-12-18T08:09:11.227Z,102327.38
2022-12-18T08:12:13.730Z,102318.38
2022-12-18T08:15:16.206Z,102355.31
2022-12-18T08:18:18.639Z,102350.50
2022-12-18T08:21:31.916Z,102337.00
2022-12-18T08:24:34.354Z,102350.66
2022-12-18T08:27:37.376Z,102356.31
2022-12-18T08:30:39.789Z,102340.75
2022-12-18T08:33:43.677Z,102363.84
2022-12-18T08:36:46.479Z,102360.59
2022-12-18T08:39:48.950Z,102363.53
2022-12-18T08:43:09.887Z,102359.59
2022-12-18T08:46:13.265Z,102343.63
2022-12-18T08:49:16.452Z,102366.59
2022-12-18T08:52:18.979Z,102368.78
2022-12-18T08:55:21.758Z,102362.94
2022-12-18T08:58:25.362Z,102377.66
2022-12-18T09:01:28.009Z,102365.81
2022-12-18T09:04:30.565Z,102360.94
2022-12-18T09:07:32.916Z,102370.19
2022-12-18T09:10:43.529Z,102391.91
2022-12-18T09:13:46.147Z,102380.94
2022-12-18T09:16:48.597Z,102394.72
2022-12-18T09:19:51.149Z,102392.53
2022-12-18T09:22:53.892Z,102408.81
2022-12-18T09:26:00.717Z,102392.59
2022-12-18T09:29:04.159Z,102399.28
2022-12-18T09:32:06.626Z,102394.00
2022-12-18T09:35:09.178Z,102386.00
2022-12-18T09:38:16.875Z,102382.16
2022-12-18T09:41:42.559Z,102402.38
2022-12-18T09:44:50.356Z,102389.50
2022-12-18T09:47:56.488Z,102402.22
2022-12-18T09:51:05.269Z,102372.91
2022-12-18T09:54:30.896Z,102391.44
2022-12-18T09:57:38.504Z,102389.75
2022-12-18T10:00:42.434Z,102366.16
2022-12-18T10:03:45.084Z,102373.88
2022-12-18T10:07:10.525Z,102389.31
2022-12-18T10:10:41.225Z,102383.28
2022-12-18T10:13:55.507Z,102385.03
2022-12-18T10:17:34.311Z,102375.97
2022-12-18T10:20:46.067Z,102385.91
2022-12-18T10:24:00.743Z,102393.00
2022-12-18T10:27:27.367Z,102384.28
2022-12-18T10:30:30.743Z,102383.69
2022-12-18T10:33:34.507Z,102372.66
2022-12-18T10:36:36.978Z,102380.22
2022-12-18T10:39:40.632Z,102372.97
2022-12-18T10:42:45.020Z,102385.25
2022-12-18T10:46:12.953Z,102370.28
2022-12-18T10:49:26.502Z,102360.41
2022-12-18T10:52:29.249Z,102380.63
2022-12-18T10:55:40.812Z,102362.28
2022-12-18T10:58:43.672Z,102383.06
2022-12-18T11:01:50.843Z,102376.50
2022-12-18T11:04:54.155Z,102366.31
2022-12-18T11:07:57.882Z,102348.38
2022-12-18T11:11:00.546Z,102354.47
2022-12-18T11:14:13.846Z,102353.75
2022-12-18T11:17:36.860Z,102344.97
2022-12-18T11:20:40.121Z,102347.66
2022-12-18T11:23:54.165Z,102353.13
2022-12-18T11:27:01.390Z,102342.34
2022-12-18T11:30:26.145Z,102357.44
2022-12-18T11:33:28.800Z,102363.22
2022-12-18T11:36:37.551Z,102341.75
2022-12-18T11:39:54.419Z,102337.88
2022-12-18T11:43:10.760Z,102343.31
2022-12-18T11:46:20.306Z,102337.81
2022-12-18T11:49:31.057Z,102330.06
2022-12-18T11:52:41.518Z,102336.13
2022-12-18T11:56:22.708Z,102342.84
2022-12-18T11:59:47.519Z,102343.63
2022-12-18T12:03:16.059Z,102340.34
2022-12-18T12:06:27.435Z,102341.69
2022-12-18T12:09:41.506Z,102327.59
2022-12-18T12:13:02.248Z,102332.91
2022-12-18T12:16:18.195Z,102336.72
2022-12-18T12:19:48.962Z,102313.19
2022-12-18T12:23:26.146Z,102320.28
2022-12-18T12:26:40.052Z,102318.13
2022-12-18T12:30:06.719Z,102317.66
2022-12-18T12:33:13.959Z,102337.25
2022-12-18T12:36:19.866Z,102324.06
2022-12-18T12:39:29.321Z,102328.06
2022-12-18T12:43:01.001Z,102336.09
2022-12-18T12:46:07.547Z,102336.06
2022-12-18T12:49:18.646Z,102328.13
2022-12-18T12:52:42.135Z,102349.50
2022-12-18T12:55:44.857Z,102355.88
2022-12-18T12:59:02.835Z,102361.03
2022-12-18T13:02:12.058Z,102351.88
2022-12-18T13:05:26.855Z,102370.19
2022-12-18T13:08:33.285Z,102358.22
2022-12-18T13:12:04.788Z,102373.47
2022-12-18T13:15:26.180Z,102358.56
2022-12-18T13:18:30.128Z,102366.13
2022-12-18T13:21:34.811Z,102376.16
2022-12-18T13:24:37.345Z,102376.66
2022-12-18T13:27:46.741Z,102379.22
2022-12-18T13:30:57.392Z,102387.53
2022-12-18T13:34:26.991Z,102366.19
2022-12-18T13:37:34.491Z,102386.88
2022-12-18T13:40:39.689Z,102395.94
2022-12-18T13:43:48.343Z,102396.94
2022-12-18T13:46:53.467Z,102397.66
2022-12-18T13:49:57.391Z,102397.44
2022-12-18T13:53:00.233Z,102395.13
2022-12-18T13:56:04.708Z,102395.94
2022-12-18T13:59:18.574Z,102402.84
2022-12-18T14:02:25.628Z,102404.28
2022-12-18T14:05:31.252Z,102398.78
2022-12-18T14:08:40.315Z,102401.41
2022-12-18T14:11:48.716Z,102405.44
2022-12-18T14:14:54.965Z,102399.34
2022-12-18T14:18:23.093Z,102387.41
2022-12-18T14:21:35.056Z,102385.34
2022-12-18T14:24:37.529Z,102379.31
2022-12-18T14:27:49.537Z,102404.28
2022-12-18T14:30:52.059Z,102392.81
2022-12-18T14:33:54.828Z,102401.25
2022-12-18T14:36:57.469Z,102421.00
2022-12-18T14:40:10.456Z,102413.81
2022-12-18T14:43:14.364Z,102425.41
2022-12-18T14:46:30.967Z,102433.13
2022-12-18T14:49:35.292Z,102423.56
2022-12-18T14:52:38.675Z,102425.53
2022-12-18T14:55:48.502Z,102434.44
2022-12-18T14:59:02.478Z,102424.72
2022-12-18T15:02:11.958Z,102435.16
2022-12-18T15:05:14.462Z,102458.38
2022-12-18T15:08:50.741Z,102456.22
2022-12-18T15:11:59.894Z,102447.78
2022-12-18T15:15:04.049Z,102442.91
2022-12-18T15:18:12.979Z,102468.53
2022-12-18T15:21:20.257Z,102445.03
2022-12-18T15:24:28.251Z,102467.44
2022-12-18T15:27:38.812Z,102480.16
2022-12-18T15:31:03.416Z,102463.66
2022-12-18T15:34:09.293Z,102481.44
2022-12-18T15:37:12.192Z,102457.56
2022-12-18T15:40:23.388Z,102484.47
2022-12-18T15:43:36.440Z,102476.94
2022-12-18T15:46:39.117Z,102481.72
2022-12-18T15:49:42.750Z,102484.78
2022-12-18T15:52:48.789Z,102489.91
2022-12-18T15:56:10.169Z,102516.88
2022-12-18T15:59:18.687Z,102503.94
2022-12-18T16:02:23.922Z,102526.50
2022-12-18T16:05:28.905Z,102525.09
2022-12-18T16:08:32.387Z,102526.66
2022-12-18T16:11:44.130Z,102502.81
2022-12-18T16:14:46.850Z,102537.06
2022-12-18T16:17:49.749Z,102516.34
2022-12-18T16:20:52.712Z,102518.47
2022-12-18T16:23:55.611Z,102548.25
2022-12-18T16:27:00.345Z,102527.91
2022-12-18T16:30:03.696Z,102538.72
2022-12-18T16:33:07.702Z,102538.81
2022-12-18T16:36:10.667Z,102548.94
2022-12-18T16:39:13.696Z,102551.34
2022-12-18T16:42:20.101Z,102534.09
2022-12-18T16:45:23.332Z,102547.00
2022-12-18T16:48:26.106Z,102558.72
2022-12-18T16:51:28.917Z,102563.81
2022-12-18T16:54:31.724Z,102552.31
2022-12-18T16:57:34.434Z,102554.03
2022-12-18T17:00:38.961Z,102576.31
2022-12-18T17:03:42.031Z,102558.22
2022-12-18T17:06:52.058Z,102565.81
2022-12-18T17:09:55.172Z,102560.94
2022-12-18T17:12:58.031Z,102541.84
2022-12-18T17:16:08.665Z,102569.53
2022-12-18T17:19:16.815Z,102556.31
2022-12-18T17:22:21.885Z,102568.84
2022-12-18T17:25:24.463Z,102571.63
2022-12-18T17:28:28.943Z,102558.41
2022-12-18T17:31:32.580Z,102546.81
2022-12-18T17:34:36.650Z,102550.50
2022-12-18T17:37:39.578Z,102564.69
2022-12-18T17:40:46.243Z,102548.03
2022-12-18T17:43:56.855Z,102567.91
2022-12-18T17:47:00.020Z,102572.34
2022-12-18T17:50:03.686Z,102555.25
2022-12-18T17:53:06.519Z,102554.69
2022-12-18T17:56:13.162Z,102566.41
2022-12-18T17:59:16.080Z,102545.19
2022-12-18T18:02:19.217Z,102547.66
2022-12-18T18:05:21.980Z,102549.44
2022-12-18T18:08:25.856Z,102529.66
2022-12-18T18:11:46.796Z,102554.19
2022-12-18T18:14:49.804Z,102560.09
2022-12-18T18:17:52.905Z,102586.19
2022-12-18T18:20:55.755Z,102575.56
2022-12-18T18:24:01.146Z,102585.19
2022-12-18T18:27:04.292Z,102562.69
2022-12-18T18:30:08.003Z,102574.28
2022-12-18T18:33:12.177Z,102567.94
2022-12-18T18:36:14.745Z,102575.91
2022-12-18T18:39:17.680Z,102586.72
2022-12-18T18:42:20.361Z,102551.06
2022-12-18T18:45:23.404Z,102592.78
2022-12-18T18:48:27.364Z,102597.25
2022-12-18T18:51:35.124Z,102582.31
2022-12-18T18:54:44.305Z,102575.94
2022-12-18T18:57:54.916Z,102586.25
2022-12-18T19:01:07.995Z,102609.03
2022-12-18T19:04:10.936Z,102622.53
2022-12-18T19:07:22.299Z,102602.59
2022-12-18T19:10:33.566Z,102619.28
2022-12-18T19:13:36.653Z,102604.50
2022-12-18T19:16:40.882Z,102627.22
2022-12-18T19:19:43.842Z,102616.59
2022-12-18T19:22:55.090Z,102610.28
2022-12-18T19:26:26.880Z,102621.38
2022-12-18T19:29:25.707Z,102642.44
2022-12-18T19:32:31.495Z,102656.97
2022-12-18T19:35:34.283Z,102656.16
2022-12-18T19:38:37.045Z,102649.72
2022-12-18T19:41:40.943Z,102662.31
2022-12-18T19:44:45.156Z,102651.75
2022-12-18T19:47:47.858Z,102610.28
2022-12-18T19:50:50.624Z,102658.50
2022-12-18T19:53:58.442Z,102676.44
2022-12-18T19:57:01.641Z,102666.53
2022-12-18T20:00:05.934Z,102650.50
2022-12-18T20:03:23.482Z,102638.84
2022-12-18T20:06:36.053Z,102634.94
2022-12-18T20:09:38.744Z,102671.59
2022-12-18T20:12:42.816Z,102655.94
2022-12-18T20:15:45.722Z,102685.28
2022-12-18T20:18:49.277Z,102676.38
2022-12-18T20:21:52.790Z,102673.16
2022-12-18T20:24:55.419Z,102685.47
2022-12-18T20:27:58.091Z,102683.78
2022-12-18T20:31:03.159Z,102698.31
2022-12-18T20:34:07.279Z,102693.75
2022-12-18T20:37:19.491Z,102697.59
2022-12-18T20:40:23.701Z,102691.16
2022-12-18T20:43:26.238Z,102675.38
2022-12-18T20:46:28.782Z,102682.31
2022-12-18T20:49:31.252Z,102689.91
2022-12-18T20:52:34.338Z,102694.94
2022-12-18T20:55:41.826Z,102692.13
2022-12-18T20:58:45.186Z,102699.91
2022-12-18T21:01:48.820Z,102714.25
2022-12-18T21:04:51.997Z,102726.13
2022-12-18T21:07:54.420Z,102726.81
2022-12-18T21:11:32.339Z,102718.44
2022-12-18T21:14:35.528Z,102715.31
2022-12-18T21:17:42.941Z,102721.09
2022-12-18T21:20:47.728Z,102711.78
2022-12-18T21:23:50.924Z,102735.31
2022-12-18T21:26:53.991Z,102722.00
2022-12-18T21:29:56.599Z,102726.63
2022-12-18T21:32:59.252Z,102716.69
2022-12-18T21:36:06.412Z,102703.25
2022-12-18T21:39:09.055Z,102714.03
2022-12-18T21:42:31.245Z,102702.34
2022-12-18T21:45:34.028Z,102711.88
2022-12-18T21:48:39.104Z,102700.50
2022-12-18T21:51:41.507Z,102676.91
2022-12-18T21:54:43.972Z,102701.91
2022-12-18T21:57:46.646Z,102690.97
2022-12-18T22:00:50.173Z,102708.28
2022-12-18T22:03:53.483Z,102706.66
2022-12-18T22:06:56.188Z,102710.69
2022-12-18T22:09:59.075Z,102703.41
2022-12-18T22:13:02.744Z,102694.28
2022-12-18T22:16:05.387Z,102706.25
2022-12-18T22:19:08.960Z,102715.25
2022-12-18T22:22:11.449Z,102712.66
2022-12-18T22:25:14.111Z,102718.19
2022-12-18T22:28:35.044Z,102708.66
2022-12-18T22:31:38.588Z,102714.53
2022-12-18T22:34:41.116Z,102717.94
2022-12-18T22:37:43.562Z,102703.31
2022-12-18T22:40:46.039Z,102730.66
2022-12-18T22:43:48.713Z,102731.25
2022-12-18T22:46:56.211Z,102721.34
2022-12-18T22:50:12.658Z,102705.66
2022-12-18T22:53:15.088Z,102729.84
2022-12-18T22:56:21.148Z,102724.50
2022-12-18T22:59:25.067Z,102732.72
2022-12-18T23:02:27.655Z,102735.09
2022-12-18T23:05:31.388Z,102725.03
2022-12-18T23:08:34.584Z,102718.97
2022-12-18T23:11:37.033Z,102689.56
2022-12-18T23:14:39.481Z,102710.94
2022-12-18T23:17:42.004Z,102712.56
2022-12-18T23:20:44.624Z,102727.38
2022-12-18T23:23:48.531Z,102730.19
2022-12-18T23:26:50.991Z,102716.88
2022-12-18T23:29:53.397Z,102719.50
2022-12-18T23:32:57.702Z,102705.78
2022-12-18T23:36:01.448Z,102699.09
2022-12-18T23:39:04.335Z,102710.88
2022-12-18T23:42:06.708Z,102703.28
2022-12-18T23:45:16.604Z,102723.19
2022-12-18T23:48:21.055Z,102725.34
2022-12-18T23:51:25.609Z,102700.88
2022-12-18T23:54:33.161Z,102708.88
2022-12-18T23:57:36.315Z,102711.41
